Time;durP1;ratioP1;P1;durP2;ratioP2;P2;SDS_P1;SDS_P2;PMS_P1;PMS_P2;Temp;Humidity;BMP_temperature;BMP_pressure;BME280_temperature;BME280_humidity;BME280_pressure;Samples;Min_cycle;Max_cycle;Signal;HPM_P1;HPM_P2
2022/10/07 00:00:01;;;;;;;2.10;0.82;;;;;;;;;;1797130;79;26250;-55
2022/10/07 00:02:29;;;;;;;1.42;0.80;;;;;;;;;;1795097;79;26254;-58
2022/10/07 00:04:57;;;;;;;1.22;0.70;;;;;;;;;;1786395;79;27034;-57
2022/10/07 00:07:24;;;;;;;2.37;0.80;;;;;;;;;;1793586;79;26347;-57
2022/10/07 00:09:51;;;;;;;2.27;0.90;;;;;;;;;;1792764;79;26226;-55
2022/10/07 00:12:18;;;;;;;4.35;0.75;;;;;;;;;;1794635;79;26292;-54
2022/10/07 00:14:46;;;;;;;0.62;0.60;;;;;;;;;;1793512;79;26262;-55
2022/10/07 00:17:13;;;;;;;0.70;0.70;;;;;;;;;;1792944;79;26225;-58
2022/10/07 00:19:40;;;;;;;1.22;0.80;;;;;;;;;;1797237;79;26217;-58
2022/10/07 00:22:08;;;;;;;1.95;0.70;;;;;;;;;;1796351;79;26404;-53
2022/10/07 00:24:35;;;;;;;2.22;0.68;;;;;;;;;;1788481;79;26255;-56
2022/10/07 00:27:02;;;;;;;0.78;0.78;;;;;;;;;;1794171;79;26226;-55
2022/10/07 00:29:30;;;;;;;1.35;0.80;;;;;;;;;;1790130;78;26773;-56
2022/10/07 00:31:57;;;;;;;2.12;0.70;;;;;;;;;;1798561;79;26785;-56
2022/10/07 00:34:24;;;;;;;0.82;0.80;;;;;;;;;;1798504;79;26294;-56
2022/10/07 00:36:52;;;;;;;1.27;0.80;;;;;;;;;;1789180;79;26222;-57
2022/10/07 00:39:19;;;;;;;0.80;0.80;;;;;;;;;;1790452;79;26224;-57
2022/10/07 00:41:51;;;;;;;1.65;0.68;;;;;;;;;;1793787;79;26222;-55
2022/10/07 00:44:35;;;;;;;0.75;0.70;;;;;;;;;;1791488;79;26314;-54
2022/10/07 00:47:13;;;;;;;1.12;0.80;;;;;;;;;;1791294;79;26329;-53
2022/10/07 00:49:48;;;;;;;1.02;0.60;;;;;;;;;;1796493;79;26316;-54
2022/10/07 00:52:16;;;;;;;1.95;0.82;;;;;;;;;;1793458;79;26257;-55
2022/10/07 00:54:43;;;;;;;0.68;0.60;;;;;;;;;;1795277;79;26235;-57
2022/10/07 00:57:11;;;;;;;0.70;0.70;;;;;;;;;;1798833;79;26325;-55
2022/10/07 00:59:39;;;;;;;0.70;0.70;;;;;;;;;;1789208;79;26687;-56
2022/10/07 01:02:07;;;;;;;0.68;0.68;;;;;;;;;;1798094;79;26229;-58
2022/10/07 01:04:35;;;;;;;0.60;0.60;;;;;;;;;;1793930;79;26238;-55
2022/10/07 01:07:02;;;;;;;1.02;0.78;;;;;;;;;;1798165;79;26599;-56
2022/10/07 01:09:30;;;;;;;2.83;0.70;;;;;;;;;;1791748;79;26247;-57
2022/10/07 01:11:58;;;;;;;2.08;0.70;;;;;;;;;;1797116;79;27455;-56
2022/10/07 01:14:28;;;;;;;0.95;0.70;;;;;;;;;;1789913;79;26699;-56
2022/10/07 01:16:57;;;;;;;0.80;0.80;;;;;;;;;;1790007;79;26225;-57
2022/10/07 01:19:26;;;;;;;0.55;0.55;;;;;;;;;;1797307;79;26222;-57
2022/10/07 01:22:01;;;;;;;1.65;0.80;;;;;;;;;;1789211;79;27618;-57
2022/10/07 01:24:32;;;;;;;2.20;0.78;;;;;;;;;;1786392;79;26226;-55
2022/10/07 01:27:03;;;;;;;2.45;0.60;;;;;;;;;;1791792;79;26262;-55
2022/10/07 01:29:34;;;;;;;1.05;0.80;;;;;;;;;;1788824;79;26300;-56
2022/10/07 01:32:03;;;;;;;0.95;0.65;;;;;;;;;;1793190;79;26262;-54
2022/10/07 01:34:33;;;;;;;1.22;0.75;;;;;;;;;;1798412;75;50345;-84
2022/10/07 01:37:01;;;;;;;0.72;0.70;;;;;;;;;;1822023;77;26318;-86
2022/10/07 01:39:29;;;;;;;0.50;0.50;;;;;;;;;;1816503;77;27459;-85
2022/10/07 01:41:57;;;;;;;2.02;0.80;;;;;;;;;;1811015;77;26938;-86
2022/10/07 01:44:26;;;;;;;0.70;0.70;;;;;;;;;;1812770;77;26271;-84
2022/10/07 01:46:54;;;;;;;2.35;0.88;;;;;;;;;;1811625;77;27278;-86
2022/10/07 01:49:21;;;;;;;0.60;0.60;;;;;;;;;;1816226;77;26329;-85
2022/10/07 01:51:50;;;;;;;0.70;0.68;;;;;;;;;;1817058;77;26837;-84
2022/10/07 01:54:20;;;;;;;1.00;0.80;;;;;;;;;;1804891;78;26320;-85
2022/10/07 01:56:55;;;;;;;0.60;0.60;;;;;;;;;;1814130;78;26319;-86
2022/10/07 01:59:26;;;;;;;0.75;0.50;;;;;;;;;;1810428;78;27154;-84
2022/10/07 02:01:55;;;;;;;0.70;0.57;;;;;;;;;;1783919;78;26841;-85
2022/10/07 02:04:29;;;;;;;1.55;0.78;;;;;;;;;;1809261;77;26286;-84
2022/10/07 02:07:09;;;;;;;0.88;0.50;;;;;;;;;;1814917;78;26232;-85
2022/10/07 02:09:38;;;;;;;0.80;0.80;;;;;;;;;;1755101;78;26855;-85
2022/10/07 02:12:14;;;;;;;2.33;0.70;;;;;;;;;;1813945;77;26676;-87
2022/10/07 02:14:43;;;;;;;0.70;0.70;;;;;;;;;;1808488;77;26356;-87
2022/10/07 02:17:13;;;;;;;0.70;0.60;;;;;;;;;;1815509;77;26241;-88
2022/10/07 02:19:42;;;;;;;0.70;0.70;;;;;;;;;;1813435;78;26796;-86
2022/10/07 02:22:11;;;;;;;0.60;0.60;;;;;;;;;;1815723;77;26235;-88
2022/10/07 02:24:39;;;;;;;0.60;0.60;;;;;;;;;;1814331;78;26339;-86
2022/10/07 02:27:09;;;;;;;0.82;0.68;;;;;;;;;;1811449;77;26745;-86
2022/10/07 02:29:38;;;;;;;0.60;0.60;;;;;;;;;;1817700;77;26390;-84
2022/10/07 02:32:07;;;;;;;0.68;0.68;;;;;;;;;;1803501;78;26853;-83
2022/10/07 02:34:35;;;;;;;1.75;0.60;;;;;;;;;;1818423;77;27772;-86
2022/10/07 02:37:04;;;;;;;0.80;0.60;;;;;;;;;;1854157;77;26541;-86
2022/10/07 02:39:31;;;;;;;2.15;0.90;;;;;;;;;;1862934;75;26304;-86
2022/10/07 02:42:02;;;;;;;1.27;0.70;;;;;;;;;;1858898;77;26264;-87
2022/10/07 02:44:31;;;;;;;1.05;0.68;;;;;;;;;;1859665;75;26726;-87
2022/10/07 02:47:03;;;;;;;0.53;0.50;;;;;;;;;;1854567;75;26671;-86
2022/10/07 02:52:19;;;;;;;0.68;0.65;;;;;;;;;;1794222;76;26808;-53
2022/10/07 02:54:48;;;;;;;0.72;0.70;;;;;;;;;;1782830;79;26231;-53
2022/10/07 02:57:17;;;;;;;0.75;0.75;;;;;;;;;;1780671;79;26313;-49
2022/10/07 02:59:46;;;;;;;0.60;0.60;;;;;;;;;;1776749;79;26230;-53
2022/10/07 03:02:15;;;;;;;0.60;0.60;;;;;;;;;;1778351;79;26317;-52
2022/10/07 03:04:42;;;;;;;0.88;0.80;;;;;;;;;;1781973;79;26235;-52
2022/10/07 03:07:11;;;;;;;0.60;0.60;;;;;;;;;;1784138;79;26285;-51
2022/10/07 03:09:39;;;;;;;0.70;0.70;;;;;;;;;;1782304;79;26598;-49
2022/10/07 03:12:07;;;;;;;0.40;0.40;;;;;;;;;;1783364;79;26759;-50
2022/10/07 03:14:35;;;;;;;0.70;0.70;;;;;;;;;;1787052;79;26311;-54
2022/10/07 03:17:02;;;;;;;0.60;0.60;;;;;;;;;;1784329;79;26708;-53
2022/10/07 03:19:35;;;;;;;0.68;0.68;;;;;;;;;;1780919;79;26241;-49
2022/10/07 03:22:01;;;;;;;1.65;0.65;;;;;;;;;;1777398;79;26723;-50
2022/10/07 03:24:32;;;;;;;0.82;0.82;;;;;;;;;;1782165;79;26332;-53
2022/10/07 03:27:01;;;;;;;0.40;0.40;;;;;;;;;;1782710;79;26246;-49
2022/10/07 03:29:33;;;;;;;0.47;0.47;;;;;;;;;;1787736;79;26254;-55
2022/10/07 03:32:05;;;;;;;0.75;0.70;;;;;;;;;;1780786;79;26242;-53
2022/10/07 03:34:34;;;;;;;0.60;0.60;;;;;;;;;;1783415;79;26238;-51
2022/10/07 03:37:04;;;;;;;0.60;0.60;;;;;;;;;;1771840;79;26231;-50
2022/10/07 03:39:32;;;;;;;0.72;0.72;;;;;;;;;;1773545;79;26334;-55
2022/10/07 03:42:00;;;;;;;0.60;0.60;;;;;;;;;;1780029;79;26279;-50
2022/10/07 03:44:28;;;;;;;0.50;0.50;;;;;;;;;;1786507;79;26251;-52
2022/10/07 03:46:55;;;;;;;0.50;0.50;;;;;;;;;;1780021;79;26590;-50
2022/10/07 03:49:26;;;;;;;0.65;0.65;;;;;;;;;;1774271;79;27057;-52
2022/10/07 03:51:59;;;;;;;0.70;0.70;;;;;;;;;;1770510;79;26319;-52
2022/10/07 03:54:22;;;;;;;2.15;0.65;;;;;;;;;;1756488;79;26289;-53
2022/10/07 03:56:54;;;;;;;0.53;0.50;;;;;;;;;;1771864;79;26678;-52
2022/10/07 03:59:21;;;;;;;0.72;0.68;;;;;;;;;;1769342;79;27518;-51
2022/10/07 04:02:15;;;;;;;1.32;0.68;;;;;;;;;;1771536;79;26279;-54
2022/10/07 04:05:02;;;;;;;0.72;0.70;;;;;;;;;;1763343;79;26297;-51
2022/10/07 04:07:44;;;;;;;2.02;0.60;;;;;;;;;;1767450;79;26425;-56
2022/10/07 04:10:23;;;;;;;0.50;0.50;;;;;;;;;;1760725;79;26751;-50
2022/10/07 04:13:00;;;;;;;0.60;0.60;;;;;;;;;;1750605;79;26708;-54
2022/10/07 04:15:37;;;;;;;0.60;0.60;;;;;;;;;;1778980;79;26768;-49
2022/10/07 04:20:57;;;;;;;0.88;0.60;;;;;;;;;;1661512;83;26417;-53
2022/10/07 04:23:32;;;;;;;0.70;0.70;;;;;;;;;;1671153;83;26405;-50
2022/10/07 04:28:48;;;;;;;0.50;0.50;;;;;;;;;;1697145;79;26730;-52
2022/10/07 04:31:16;;;;;;;0.65;0.65;;;;;;;;;;1771346;79;26286;-53
2022/10/07 04:33:44;;;;;;;1.60;0.60;;;;;;;;;;1767137;79;26268;-50
2022/10/07 04:36:11;;;;;;;0.82;0.82;;;;;;;;;;1769178;79;26295;-52
2022/10/07 04:38:41;;;;;;;0.70;0.50;;;;;;;;;;1775467;79;26275;-51
2022/10/07 04:41:08;;;;;;;0.88;0.80;;;;;;;;;;1768206;79;26346;-52
2022/10/07 04:43:35;;;;;;;0.85;0.70;;;;;;;;;;1766031;79;26278;-56
2022/10/07 04:46:04;;;;;;;1.05;0.62;;;;;;;;;;1759953;79;26960;-51
2022/10/07 04:48:32;;;;;;;0.60;0.60;;;;;;;;;;1769996;79;27416;-48
2022/10/07 04:51:02;;;;;;;0.75;0.70;;;;;;;;;;1763493;79;26439;-49
2022/10/07 04:53:30;;;;;;;0.57;0.55;;;;;;;;;;1803980;79;26718;-48
2022/10/07 04:55:59;;;;;;;0.53;0.53;;;;;;;;;;1771764;79;26242;-52
2022/10/07 04:58:27;;;;;;;1.15;0.70;;;;;;;;;;1771590;79;26242;-48
2022/10/07 05:00:55;;;;;;;0.62;0.60;;;;;;;;;;1775336;79;26344;-54
2022/10/07 05:03:23;;;;;;;0.78;0.78;;;;;;;;;;1770399;79;26627;-51
2022/10/07 05:05:52;;;;;;;0.50;0.50;;;;;;;;;;1781177;79;26313;-51
2022/10/07 05:08:20;;;;;;;0.68;0.68;;;;;;;;;;1776177;79;26236;-51
2022/10/07 05:10:48;;;;;;;0.88;0.80;;;;;;;;;;1770031;79;26223;-49
2022/10/07 05:13:15;;;;;;;0.88;0.60;;;;;;;;;;1776827;79;26286;-51
2022/10/07 05:15:50;;;;;;;1.22;0.60;;;;;;;;;;1791395;79;26534;-51
2022/10/07 05:18:18;;;;;;;0.75;0.70;;;;;;;;;;1781160;79;26230;-52
2022/10/07 05:20:46;;;;;;;1.60;0.78;;;;;;;;;;1772987;79;26220;-54
2022/10/07 05:23:15;;;;;;;0.68;0.68;;;;;;;;;;1786271;79;26313;-52
2022/10/07 05:25:43;;;;;;;0.40;0.40;;;;;;;;;;1772349;79;26188;-49
2022/10/07 05:28:10;;;;;;;1.65;0.60;;;;;;;;;;1762081;79;26268;-54
2022/10/07 05:30:38;;;;;;;3.77;1.00;;;;;;;;;;1763253;79;26523;-52
2022/10/07 05:33:06;;;;;;;4.10;1.10;;;;;;;;;;1759659;79;26236;-51
2022/10/07 05:35:33;;;;;;;3.12;0.80;;;;;;;;;;1766874;79;26289;-51
2022/10/07 05:38:01;;;;;;;6.53;0.90;;;;;;;;;;1781244;79;26246;-49
2022/10/07 05:40:28;;;;;;;5.35;0.88;;;;;;;;;;1764360;79;26232;-50
2022/10/07 05:42:55;;;;;;;2.83;0.98;;;;;;;;;;1772765;79;26234;-55
2022/10/07 05:45:22;;;;;;;5.53;1.45;;;;;;;;;;1779384;79;26639;-55
2022/10/07 05:47:50;;;;;;;6.28;1.10;;;;;;;;;;1786846;79;26284;-51
2022/10/07 05:50:17;;;;;;;3.45;0.80;;;;;;;;;;1783314;79;26285;-52
2022/10/07 05:52:45;;;;;;;8.80;1.40;;;;;;;;;;1774199;79;26317;-49
2022/10/07 05:55:12;;;;;;;7.00;1.15;;;;;;;;;;1772614;79;26278;-52
2022/10/07 05:57:40;;;;;;;5.00;1.10;;;;;;;;;;1770324;79;26302;-52
2022/10/07 06:00:07;;;;;;;6.00;1.35;;;;;;;;;;1779125;79;26362;-52
2022/10/07 06:02:36;;;;;;;6.97;1.40;;;;;;;;;;1763101;79;26337;-51
2022/10/07 06:05:03;;;;;;;4.62;1.20;;;;;;;;;;1776647;79;26358;-49
2022/10/07 06:07:30;;;;;;;3.08;1.00;;;;;;;;;;1773110;79;26728;-50
2022/10/07 06:15:30;;;;;;;5.50;1.25;;;;;;;;;;1776835;79;26363;-49
2022/10/07 06:17:57;;;;;;;4.92;1.32;;;;;;;;;;1775927;79;26303;-52
2022/10/07 06:20:24;;;;;;;2.30;1.00;;;;;;;;;;1767808;79;26743;-48
2022/10/07 06:22:56;;;;;;;4.45;1.05;;;;;;;;;;1766225;79;26569;-52
2022/10/07 06:25:23;;;;;;;5.25;1.07;;;;;;;;;;1775698;79;26290;-50
2022/10/07 06:27:50;;;;;;;4.58;1.10;;;;;;;;;;1775565;79;26322;-52
2022/10/07 06:30:17;;;;;;;4.60;1.15;;;;;;;;;;1764399;79;26369;-48
2022/10/07 06:32:45;;;;;;;7.10;1.20;;;;;;;;;;1774314;79;26362;-51
2022/10/07 06:35:12;;;;;;;4.17;1.20;;;;;;;;;;1766939;79;27418;-53
2022/10/07 06:37:39;;;;;;;6.40;1.17;;;;;;;;;;1764687;79;26279;-50
2022/10/07 06:40:07;;;;;;;1.57;1.00;;;;;;;;;;1770857;79;26370;-51
2022/10/07 06:42:34;;;;;;;4.67;1.20;;;;;;;;;;1766919;79;26360;-49
2022/10/07 06:45:02;;;;;;;3.92;1.62;;;;;;;;;;1770818;79;26349;-57
2022/10/07 06:47:29;;;;;;;4.15;1.17;;;;;;;;;;1771199;79;27405;-50
2022/10/07 06:49:56;;;;;;;2.15;1.10;;;;;;;;;;1762462;79;28310;-55
2022/10/07 06:52:23;;;;;;;4.92;1.32;;;;;;;;;;1771513;79;26280;-55
2022/10/07 06:54:51;;;;;;;4.17;1.22;;;;;;;;;;1788680;78;26267;-61
2022/10/07 06:57:18;;;;;;;5.53;1.10;;;;;;;;;;1796947;78;26707;-61
2022/10/07 06:59:45;;;;;;;1.92;1.00;;;;;;;;;;1794102;78;27735;-62
2022/10/07 07:02:12;;;;;;;2.72;1.00;;;;;;;;;;1794418;78;26630;-57
2022/10/07 07:04:40;;;;;;;2.30;1.00;;;;;;;;;;1797683;78;27298;-57
2022/10/07 07:07:07;;;;;;;3.67;1.10;;;;;;;;;;1795847;78;26744;-59
2022/10/07 07:09:34;;;;;;;1.52;1.00;;;;;;;;;;1802752;78;26732;-59
2022/10/07 07:12:01;;;;;;;3.25;1.30;;;;;;;;;;1797123;78;26217;-60
2022/10/07 07:14:29;;;;;;;1.35;1.10;;;;;;;;;;1796603;78;26309;-60
2022/10/07 07:16:56;;;;;;;4.67;1.10;;;;;;;;;;1805606;78;26657;-60
2022/10/07 07:19:23;;;;;;;2.77;0.95;;;;;;;;;;1790826;78;26266;-59
2022/10/07 07:21:51;;;;;;;1.10;1.10;;;;;;;;;;1798112;78;26217;-56
2022/10/07 07:24:18;;;;;;;1.25;1.00;;;;;;;;;;1797945;78;26243;-52
2022/10/07 07:26:46;;;;;;;5.10;1.10;;;;;;;;;;1798266;78;26730;-60
2022/10/07 07:29:15;;;;;;;2.35;0.90;;;;;;;;;;1805717;78;26265;-58
2022/10/07 07:31:43;;;;;;;3.47;1.15;;;;;;;;;;1794982;78;26849;-59
2022/10/07 07:34:12;;;;;;;1.47;1.00;;;;;;;;;;1797154;78;26247;-56
2022/10/07 07:36:41;;;;;;;1.32;1.20;;;;;;;;;;1805233;78;26218;-55
2022/10/07 07:39:09;;;;;;;1.57;1.10;;;;;;;;;;1793351;78;26247;-58
2022/10/07 07:41:40;;;;;;;1.22;1.10;;;;;;;;;;1794066;78;26718;-51
2022/10/07 07:44:10;;;;;;;1.45;0.90;;;;;;;;;;1795350;78;26258;-52
2022/10/07 07:46:38;;;;;;;2.10;0.90;;;;;;;;;;1794062;78;26317;-48
2022/10/07 07:49:06;;;;;;;1.60;0.90;;;;;;;;;;1797534;78;26576;-53
2022/10/07 07:51:33;;;;;;;0.88;0.88;;;;;;;;;;1793965;78;26259;-50
2022/10/07 07:54:01;;;;;;;1.75;1.05;;;;;;;;;;1796426;78;26315;-56
2022/10/07 07:56:30;;;;;;;1.00;1.00;;;;;;;;;;1794471;78;26336;-53
2022/10/07 07:58:58;;;;;;;0.70;0.70;;;;;;;;;;1792310;78;26687;-51
2022/10/07 08:01:26;;;;;;;1.47;0.98;;;;;;;;;;1797163;78;26889;-53
2022/10/07 08:03:53;;;;;;;0.70;0.70;;;;;;;;;;1790211;78;26773;-55
2022/10/07 08:06:20;;;;;;;2.08;0.80;;;;;;;;;;1789783;78;26226;-57
2022/10/07 08:08:48;;;;;;;1.40;0.82;;;;;;;;;;1798959;78;26250;-58
2022/10/07 08:11:16;;;;;;;1.00;0.80;;;;;;;;;;1798038;78;26225;-55
2022/10/07 08:13:44;;;;;;;0.75;0.75;;;;;;;;;;1786970;78;26310;-59
2022/10/07 08:16:13;;;;;;;0.60;0.60;;;;;;;;;;1792714;78;26274;-56
2022/10/07 08:18:41;;;;;;;0.90;0.90;;;;;;;;;;1793258;78;26717;-54
2022/10/07 08:21:09;;;;;;;1.50;0.90;;;;;;;;;;1800584;78;26242;-53
2022/10/07 08:23:37;;;;;;;0.53;0.53;;;;;;;;;;1793094;78;26246;-59
2022/10/07 08:26:06;;;;;;;0.98;0.90;;;;;;;;;;1791806;78;26793;-58
2022/10/07 08:28:34;;;;;;;0.80;0.80;;;;;;;;;;1788659;78;26790;-59
2022/10/07 08:31:03;;;;;;;1.45;0.78;;;;;;;;;;1790954;78;26289;-59
2022/10/07 08:33:33;;;;;;;0.85;0.85;;;;;;;;;;1777996;78;26849;-57
2022/10/07 08:36:01;;;;;;;1.25;0.90;;;;;;;;;;1785553;78;26692;-58
2022/10/07 08:38:30;;;;;;;0.70;0.70;;;;;;;;;;1778975;78;26259;-58
2022/10/07 08:40:58;;;;;;;0.80;0.80;;;;;;;;;;1795355;78;26335;-51
2022/10/07 08:43:26;;;;;;;0.72;0.72;;;;;;;;;;1799702;78;26525;-59
2022/10/07 08:45:54;;;;;;;1.15;0.80;;;;;;;;;;1796255;78;27460;-53
2022/10/07 08:48:23;;;;;;;0.68;0.68;;;;;;;;;;1797393;78;26765;-54
2022/10/07 08:51:11;;;;;;;0.70;0.70;;;;;;;;;;1772121;78;26671;-57
2022/10/07 08:53:39;;;;;;;1.10;0.80;;;;;;;;;;1777341;78;26294;-55
2022/10/07 08:56:07;;;;;;;0.70;0.70;;;;;;;;;;1812074;78;26723;-59
2022/10/07 08:58:54;;;;;;;0.70;0.70;;;;;;;;;;1805132;78;26292;-57
2022/10/07 09:01:25;;;;;;;0.70;0.70;;;;;;;;;;1791076;78;26746;-58
2022/10/07 09:03:58;;;;;;;6.10;0.72;;;;;;;;;;1788653;78;26202;-59
2022/10/07 09:06:27;;;;;;;0.62;0.60;;;;;;;;;;1803204;78;26369;-53
2022/10/07 09:08:58;;;;;;;0.70;0.70;;;;;;;;;;1804475;78;26714;-56
2022/10/07 09:11:26;;;;;;;3.47;0.78;;;;;;;;;;1796558;78;26227;-58
2022/10/07 09:13:55;;;;;;;0.70;0.70;;;;;;;;;;1803822;78;26688;-56
2022/10/07 09:16:26;;;;;;;0.70;0.70;;;;;;;;;;1813487;78;26253;-54
2022/10/07 09:18:55;;;;;;;0.65;0.65;;;;;;;;;;1786021;78;26300;-57
2022/10/07 09:21:31;;;;;;;0.70;0.70;;;;;;;;;;1807181;78;26749;-58
2022/10/07 09:24:01;;;;;;;1.52;0.55;;;;;;;;;;1794663;78;26322;-56
2022/10/07 09:26:30;;;;;;;2.08;0.80;;;;;;;;;;1776666;78;26293;-58
2022/10/07 09:28:58;;;;;;;0.95;0.70;;;;;;;;;;1797435;78;26310;-55
2022/10/07 09:31:25;;;;;;;0.70;0.70;;;;;;;;;;1793750;78;27351;-55
2022/10/07 09:33:53;;;;;;;0.72;0.72;;;;;;;;;;1805449;78;26237;-57
2022/10/07 09:36:20;;;;;;;0.70;0.70;;;;;;;;;;1802656;78;26333;-52
2022/10/07 09:38:49;;;;;;;3.55;0.70;;;;;;;;;;1805220;78;26292;-57
2022/10/07 09:41:21;;;;;;;0.62;0.62;;;;;;;;;;1806433;78;26230;-52
2022/10/07 09:44:02;;;;;;;0.68;0.68;;;;;;;;;;1782700;78;26753;-59
2022/10/07 09:46:34;;;;;;;0.62;0.62;;;;;;;;;;1798189;78;26229;-57
2022/10/07 09:49:04;;;;;;;0.60;0.60;;;;;;;;;;1802094;78;26233;-56
2022/10/07 09:51:34;;;;;;;1.95;0.70;;;;;;;;;;1804427;78;26254;-59
2022/10/07 09:54:02;;;;;;;0.68;0.68;;;;;;;;;;1791730;78;26285;-59
2022/10/07 09:56:34;;;;;;;0.70;0.70;;;;;;;;;;1772419;79;26283;-56
2022/10/07 09:59:06;;;;;;;0.82;0.70;;;;;;;;;;1779209;79;26294;-59
2022/10/07 10:01:33;;;;;;;0.50;0.50;;;;;;;;;;1769899;79;26739;-59
2022/10/07 10:04:00;;;;;;;0.60;0.60;;;;;;;;;;1774919;79;26290;-60
2022/10/07 10:06:28;;;;;;;0.70;0.60;;;;;;;;;;1771978;79;26260;-58
2022/10/07 10:08:56;;;;;;;0.50;0.50;;;;;;;;;;1761235;79;26298;-58
2022/10/07 10:11:26;;;;;;;0.62;0.62;;;;;;;;;;1761840;79;27491;-60
2022/10/07 10:13:54;;;;;;;0.72;0.60;;;;;;;;;;1792426;79;26347;-59
2022/10/07 10:16:26;;;;;;;0.70;0.70;;;;;;;;;;1758309;79;26377;-59
2022/10/07 10:18:55;;;;;;;0.55;0.55;;;;;;;;;;1777018;79;26309;-61
2022/10/07 10:21:28;;;;;;;0.62;0.62;;;;;;;;;;1793077;79;26353;-64
2022/10/07 10:23:59;;;;;;;2.30;0.50;;;;;;;;;;1777443;79;26369;-59
2022/10/07 10:26:35;;;;;;;0.62;0.62;;;;;;;;;;1770527;79;26352;-57
2022/10/07 10:29:07;;;;;;;0.60;0.60;;;;;;;;;;1789157;79;26725;-57
2022/10/07 10:31:47;;;;;;;0.70;0.60;;;;;;;;;;1782109;79;26747;-59
2022/10/07 10:34:17;;;;;;;0.50;0.50;;;;;;;;;;1773345;79;26292;-60
2022/10/07 10:36:47;;;;;;;0.42;0.42;;;;;;;;;;1789681;79;26775;-58
2022/10/07 10:39:30;;;;;;;0.78;0.62;;;;;;;;;;1770306;79;26338;-58
2022/10/07 10:41:59;;;;;;;0.60;0.60;;;;;;;;;;1763598;79;26925;-57
2022/10/07 10:44:31;;;;;;;0.70;0.70;;;;;;;;;;1765252;79;26943;-55
2022/10/07 10:47:17;;;;;;;0.68;0.60;;;;;;;;;;1767170;79;26388;-56
2022/10/07 10:49:45;;;;;;;0.50;0.50;;;;;;;;;;1755987;79;26302;-55
2022/10/07 10:52:24;;;;;;;1.02;0.55;;;;;;;;;;1779699;79;26293;-51
2022/10/07 10:54:56;;;;;;;0.65;0.65;;;;;;;;;;1766278;79;26409;-56
2022/10/07 10:57:34;;;;;;;0.40;0.40;;;;;;;;;;1777650;79;27377;-56
2022/10/07 11:00:06;;;;;;;1.05;0.60;;;;;;;;;;1756467;79;26662;-59
2022/10/07 11:02:38;;;;;;;0.42;0.42;;;;;;;;;;1768709;79;26460;-56
2022/10/07 11:05:07;;;;;;;0.60;0.60;;;;;;;;;;1770707;79;26961;-53
2022/10/07 11:07:38;;;;;;;0.60;0.60;;;;;;;;;;1736771;79;28772;-55
2022/10/07 11:10:07;;;;;;;0.50;0.50;;;;;;;;;;1764226;79;26349;-56
2022/10/07 11:12:42;;;;;;;0.55;0.55;;;;;;;;;;1765373;79;26325;-54
2022/10/07 11:15:17;;;;;;;0.60;0.60;;;;;;;;;;1796557;79;26326;-56
2022/10/07 11:17:46;;;;;;;0.60;0.60;;;;;;;;;;1771991;79;26357;-51
2022/10/07 11:20:17;;;;;;;0.60;0.60;;;;;;;;;;1778016;79;26267;-55
2022/10/07 11:22:46;;;;;;;2.70;0.70;;;;;;;;;;1775653;79;26919;-52
2022/10/07 11:25:15;;;;;;;0.50;0.50;;;;;;;;;;1760828;79;26532;-53
2022/10/07 11:27:44;;;;;;;0.57;0.57;;;;;;;;;;1760956;79;26275;-52
2022/10/07 11:30:22;;;;;;;0.57;0.57;;;;;;;;;;1782110;79;26305;-52
2022/10/07 11:32:53;;;;;;;1.45;0.80;;;;;;;;;;1762328;79;26282;-54
2022/10/07 11:35:22;;;;;;;1.67;0.50;;;;;;;;;;1764231;79;26317;-50
2022/10/07 11:37:53;;;;;;;0.60;0.60;;;;;;;;;;1772704;79;26373;-52
2022/10/07 11:40:21;;;;;;;1.45;0.42;;;;;;;;;;1762748;79;26371;-53
2022/10/07 11:42:50;;;;;;;1.65;0.80;;;;;;;;;;1775465;79;26878;-53
2022/10/07 11:45:19;;;;;;;0.70;0.70;;;;;;;;;;1771088;79;26802;-50
2022/10/07 11:47:48;;;;;;;1.00;0.80;;;;;;;;;;1781254;79;27617;-53
2022/10/07 11:50:17;;;;;;;0.60;0.60;;;;;;;;;;1772295;79;26815;-51
2022/10/07 11:52:45;;;;;;;0.55;0.55;;;;;;;;;;1757817;79;26415;-50
2022/10/07 11:55:17;;;;;;;0.60;0.60;;;;;;;;;;1757972;79;26314;-50
2022/10/07 11:57:46;;;;;;;0.50;0.50;;;;;;;;;;1761246;79;26283;-52
2022/10/07 12:00:24;;;;;;;2.90;0.65;;;;;;;;;;1773474;79;26284;-52
2022/10/07 12:02:52;;;;;;;0.55;0.55;;;;;;;;;;1773978;79;26319;-54
2022/10/07 12:05:36;;;;;;;0.70;0.70;;;;;;;;;;1768306;79;26369;-49
2022/10/07 12:08:22;;;;;;;0.80;0.65;;;;;;;;;;1768005;79;26304;-52
2022/10/07 12:10:53;;;;;;;0.60;0.60;;;;;;;;;;1774484;79;26705;-49
2022/10/07 12:13:21;;;;;;;0.70;0.70;;;;;;;;;;1777908;79;26544;-51
2022/10/07 12:15:49;;;;;;;0.65;0.65;;;;;;;;;;1783669;79;26287;-52
2022/10/07 12:18:18;;;;;;;2.00;0.70;;;;;;;;;;1776141;79;26338;-58
2022/10/07 12:20:47;;;;;;;0.60;0.60;;;;;;;;;;1768695;79;26346;-58
2022/10/07 12:23:24;;;;;;;0.57;0.57;;;;;;;;;;1773197;79;26365;-58
2022/10/07 12:25:52;;;;;;;2.00;0.60;;;;;;;;;;1771037;79;26975;-57
2022/10/07 12:28:27;;;;;;;0.85;0.70;;;;;;;;;;1769681;79;26802;-57
2022/10/07 12:30:56;;;;;;;0.55;0.55;;;;;;;;;;1774726;79;26333;-50
2022/10/07 12:33:42;;;;;;;0.78;0.60;;;;;;;;;;1772099;79;26825;-58
2022/10/07 12:36:30;;;;;;;0.65;0.60;;;;;;;;;;1776730;79;26291;-56
2022/10/07 12:38:59;;;;;;;0.82;0.68;;;;;;;;;;1766729;79;26365;-53
2022/10/07 12:41:28;;;;;;;0.70;0.70;;;;;;;;;;1767449;79;26864;-58
2022/10/07 12:44:14;;;;;;;0.50;0.50;;;;;;;;;;1761338;79;26668;-53
2022/10/07 12:46:46;;;;;;;0.95;0.60;;;;;;;;;;1766166;79;26298;-54
2022/10/07 12:49:14;;;;;;;0.70;0.70;;;;;;;;;;1779978;79;26339;-56
2022/10/07 12:51:43;;;;;;;0.65;0.62;;;;;;;;;;1750018;79;26300;-56
2022/10/07 12:54:11;;;;;;;0.50;0.50;;;;;;;;;;1774748;79;26353;-56
2022/10/07 12:56:40;;;;;;;0.53;0.53;;;;;;;;;;1769712;79;26318;-56
2022/10/07 13:02:06;;;;;;;0.60;0.60;;;;;;;;;;1762593;79;26785;-55
2022/10/07 13:04:50;;;;;;;0.47;0.47;;;;;;;;;;1781833;79;26832;-54
2022/10/07 13:07:31;;;;;;;0.53;0.53;;;;;;;;;;1777358;78;26357;-55
2022/10/07 13:10:17;;;;;;;0.70;0.70;;;;;;;;;;1783885;79;26731;-57
2022/10/07 13:12:50;;;;;;;0.50;0.50;;;;;;;;;;1793563;78;26767;-55
2022/10/07 13:15:25;;;;;;;0.70;0.70;;;;;;;;;;1785398;79;26315;-56
2022/10/07 13:18:00;;;;;;;0.40;0.40;;;;;;;;;;1787987;78;26712;-54
2022/10/07 13:20:32;;;;;;;0.50;0.50;;;;;;;;;;1770340;79;26344;-55
2022/10/07 13:23:04;;;;;;;0.50;0.50;;;;;;;;;;1792477;79;26824;-57
2022/10/07 13:25:32;;;;;;;0.62;0.62;;;;;;;;;;1759019;79;27524;-55
2022/10/07 13:28:00;;;;;;;0.55;0.53;;;;;;;;;;1784583;79;26357;-54
2022/10/07 13:30:40;;;;;;;0.57;0.57;;;;;;;;;;1770543;79;27395;-56
2022/10/07 13:33:27;;;;;;;0.50;0.50;;;;;;;;;;1779556;78;26286;-57
2022/10/07 13:36:15;;;;;;;0.72;0.70;;;;;;;;;;1766687;79;26342;-53
2022/10/07 13:38:45;;;;;;;0.53;0.53;;;;;;;;;;1773478;78;26344;-57
2022/10/07 13:41:16;;;;;;;0.60;0.60;;;;;;;;;;1759046;79;26314;-53
2022/10/07 13:43:44;;;;;;;0.82;0.50;;;;;;;;;;1781756;79;26344;-55
2022/10/07 13:46:13;;;;;;;0.78;0.50;;;;;;;;;;1771810;79;26828;-54
2022/10/07 13:48:42;;;;;;;3.42;0.70;;;;;;;;;;1767613;79;26927;-58
2022/10/07 13:51:11;;;;;;;0.78;0.68;;;;;;;;;;1778821;79;26850;-55
2022/10/07 13:53:38;;;;;;;1.12;0.80;;;;;;;;;;1776158;79;26326;-56
2022/10/07 13:56:10;;;;;;;1.30;0.78;;;;;;;;;;1772190;79;27167;-57
2022/10/07 13:58:37;;;;;;;1.07;0.50;;;;;;;;;;1806770;78;26722;-58
2022/10/07 14:01:05;;;;;;;2.37;0.80;;;;;;;;;;1806350;78;26242;-56
2022/10/07 14:03:32;;;;;;;2.12;0.72;;;;;;;;;;1806726;78;26226;-57
2022/10/07 14:06:00;;;;;;;1.15;0.70;;;;;;;;;;1803483;78;26243;-55
2022/10/07 14:08:28;;;;;;;2.98;0.70;;;;;;;;;;1802321;78;27381;-53
2022/10/07 14:10:57;;;;;;;2.72;0.90;;;;;;;;;;1804166;78;26666;-55
2022/10/07 14:13:27;;;;;;;3.17;0.85;;;;;;;;;;1808213;78;26280;-57
2022/10/07 14:15:54;;;;;;;2.40;0.82;;;;;;;;;;1819923;78;26353;-52
2022/10/07 14:18:22;;;;;;;1.15;0.70;;;;;;;;;;1814148;78;26800;-55
2022/10/07 14:20:50;;;;;;;0.95;0.70;;;;;;;;;;1807038;78;26230;-53
2022/10/07 14:23:30;;;;;;;3.60;0.80;;;;;;;;;;1790657;78;26718;-56
2022/10/07 14:25:58;;;;;;;0.65;0.60;;;;;;;;;;1791548;78;26265;-56
2022/10/07 14:28:27;;;;;;;1.05;0.60;;;;;;;;;;1798739;78;26882;-58
2022/10/07 14:36:41;;;;;;;0.65;0.60;;;;;;;;;;1809465;78;26293;-57
2022/10/07 14:39:22;;;;;;;0.93;0.80;;;;;;;;;;1809455;78;26220;-58
2022/10/07 14:41:50;;;;;;;0.60;0.60;;;;;;;;;;1787900;78;26230;-57
2022/10/07 14:44:17;;;;;;;0.93;0.60;;;;;;;;;;1804345;78;26333;-58
2022/10/07 14:46:44;;;;;;;0.90;0.80;;;;;;;;;;1791324;78;26309;-56
2022/10/07 14:49:12;;;;;;;0.60;0.60;;;;;;;;;;1814828;78;27513;-55
2022/10/07 14:51:40;;;;;;;0.60;0.60;;;;;;;;;;1800288;78;26234;-60
2022/10/07 14:54:07;;;;;;;0.90;0.80;;;;;;;;;;1789141;78;26665;-57
2022/10/07 14:56:39;;;;;;;0.60;0.60;;;;;;;;;;1805786;78;26287;-56
2022/10/07 14:59:05;;;;;;;0.55;0.45;;;;;;;;;;1792835;78;26229;-56
2022/10/07 15:01:33;;;;;;;0.60;0.60;;;;;;;;;;1819941;78;26696;-58
2022/10/07 15:04:00;;;;;;;1.75;0.70;;;;;;;;;;1804294;78;26299;-57
2022/10/07 15:06:28;;;;;;;1.50;0.50;;;;;;;;;;1802820;78;27410;-59
2022/10/07 15:08:55;;;;;;;0.55;0.55;;;;;;;;;;1779277;78;27356;-59
2022/10/07 15:11:22;;;;;;;0.60;0.60;;;;;;;;;;1793000;78;26246;-52
2022/10/07 15:13:50;;;;;;;1.62;0.60;;;;;;;;;;1828407;78;26295;-53
2022/10/07 15:16:22;;;;;;;0.55;0.55;;;;;;;;;;1810900;78;26661;-54
2022/10/07 15:18:50;;;;;;;1.85;0.70;;;;;;;;;;1804964;78;26202;-51
2022/10/07 15:21:17;;;;;;;0.70;0.60;;;;;;;;;;1784131;78;26344;-51